Time;durP1;ratioP1;P1;durP2;ratioP2;P2;SDS_P1;SDS_P2;PMS_P1;PMS_P2;Temp;Humidity;BMP_temperature;BMP_pressure;BME280_temperature;BME280_humidity;BME280_pressure;Samples;Min_cycle;Max_cycle;Signal;HPM_P1;HPM_P2
2023/01/01 00:01:28;;;;;;;353.90;126.90;;;10.10;98.00;;;;;;5055510;28;20453;-71
2023/01/01 00:03:59;;;;;;;304.43;92.97;;;10.00;98.00;;;;;;5055358;28;20456;-72
2023/01/01 00:06:27;;;;;;;305.80;104.43;;;10.00;98.00;;;;;;5054411;28;20550;-72
2023/01/01 00:11:36;;;;;;;286.23;92.77;;;10.00;98.00;;;;;;5054891;28;20497;-72
2023/01/01 00:14:04;;;;;;;231.40;71.17;;;10.10;98.00;;;;;;5055015;28;20802;-71
2023/01/01 00:16:31;;;;;;;84.07;31.87;;;10.20;98.00;;;;;;5053888;28;20458;-71
2023/01/01 00:19:00;;;;;;;75.00;28.37;;;10.30;98.00;;;;;;5054976;28;20455;-71
2023/01/01 00:21:27;;;;;;;46.10;14.10;;;10.50;98.00;;;;;;5055184;28;20539;-72
2023/01/01 00:23:54;;;;;;;21.50;8.50;;;10.80;98.00;;;;;;5055081;28;20467;-72
2023/01/01 00:26:21;;;;;;;58.73;21.50;;;11.10;98.00;;;;;;5054963;28;20452;-72
2023/01/01 00:28:49;;;;;;;32.00;11.70;;;11.40;98.00;;;;;;5055162;28;20449;-72
2023/01/01 00:31:18;;;;;;;44.13;17.13;;;12.10;98.00;;;;;;5037117;28;20465;-72
2023/01/01 00:33:47;;;;;;;20.57;8.80;;;12.20;98.00;;;;;;5055086;28;20845;-72
2023/01/01 00:36:17;;;;;;;12.60;5.40;;;12.30;98.00;;;;;;5054493;28;20487;-71
2023/01/01 00:38:46;;;;;;;12.33;4.70;;;12.50;98.00;;;;;;5055222;28;20820;-72
2023/01/01 00:41:15;;;;;;;8.83;4.40;;;12.80;98.00;;;;;;5053219;28;20452;-72
2023/01/01 00:43:43;;;;;;;12.37;5.00;;;13.20;98.00;;;;;;5054502;28;20851;-72
2023/01/01 00:46:11;;;;;;;8.00;3.60;;;13.40;98.00;;;;;;5054307;28;20453;-72
2023/01/01 00:48:39;;;;;;;12.73;4.40;;;13.60;98.00;;;;;;5052649;28;20784;-73
2023/01/01 00:51:07;;;;;;;8.07;3.57;;;13.80;98.00;;;;;;5028518;28;20463;-72
2023/01/01 00:53:37;;;;;;;10.30;4.63;;;14.00;98.00;;;;;;5033086;28;20955;-72
2023/01/01 00:56:06;;;;;;;12.93;3.80;;;14.30;98.00;;;;;;5034291;28;20485;-73
2023/01/01 00:58:34;;;;;;;11.63;4.20;;;14.40;98.00;;;;;;5033149;28;20984;-73
2023/01/01 01:01:01;;;;;;;10.70;4.63;;;14.60;98.00;;;;;;5033285;28;20465;-72
2023/01/01 01:03:30;;;;;;;9.13;4.53;;;14.60;98.00;;;;;;5033912;28;20809;-73
2023/01/01 01:05:59;;;;;;;7.43;4.63;;;14.60;98.00;;;;;;5032822;28;20470;-73
2023/01/01 01:08:28;;;;;;;9.97;5.07;;;14.60;98.00;;;;;;5033994;28;20814;-73
2023/01/01 01:11:05;;;;;;;17.97;5.37;;;14.50;98.00;;;;;;5034189;28;20854;-72
2023/01/01 01:13:33;;;;;;;11.80;5.80;;;14.50;98.00;;;;;;5034294;28;20799;-73
2023/01/01 01:16:01;;;;;;;11.43;5.93;;;14.40;98.00;;;;;;5032600;28;20536;-72
2023/01/01 01:18:28;;;;;;;19.20;6.03;;;14.40;98.00;;;;;;5032821;28;20466;-73
2023/01/01 01:20:55;;;;;;;14.20;6.20;;;14.40;98.00;;;;;;5034026;28;20444;-73
2023/01/01 01:23:22;;;;;;;11.43;5.10;;;14.30;98.00;;;;;;5032712;28;20527;-73
2023/01/01 01:25:49;;;;;;;15.83;7.03;;;14.30;98.00;;;;;;5033942;28;20475;-73
2023/01/01 01:28:18;;;;;;;21.20;7.37;;;14.30;98.00;;;;;;5033753;28;20454;-73
2023/01/01 01:30:45;;;;;;;17.10;6.60;;;14.20;98.00;;;;;;5033773;28;20461;-72
2023/01/01 01:33:12;;;;;;;15.53;6.40;;;14.20;98.00;;;;;;5032633;28;20455;-72
2023/01/01 01:35:39;;;;;;;17.73;6.87;;;14.00;98.00;;;;;;5033654;28;20483;-72
2023/01/01 01:38:06;;;;;;;12.53;6.13;;;13.90;98.00;;;;;;5033964;28;20524;-73
2023/01/01 01:40:33;;;;;;;18.07;7.23;;;13.80;98.00;;;;;;5033730;28;21025;-73
2023/01/01 01:43:02;;;;;;;18.93;7.57;;;13.70;98.00;;;;;;5033790;28;20470;-72
2023/01/01 01:45:31;;;;;;;28.70;9.20;;;13.70;98.00;;;;;;5033290;28;20998;-73
2023/01/01 01:47:59;;;;;;;20.13;8.70;;;13.60;98.00;;;;;;5032957;28;20457;-72
2023/01/01 01:50:30;;;;;;;17.47;7.77;;;13.50;98.00;;;;;;5032684;28;20519;-72
2023/01/01 01:53:05;;;;;;;18.37;7.60;;;13.50;98.00;;;;;;5022366;28;20462;-72
2023/01/01 01:55:36;;;;;;;19.30;8.10;;;13.30;98.00;;;;;;5013399;28;21012;-72
2023/01/01 01:58:05;;;;;;;19.73;7.30;;;13.30;98.00;;;;;;5012405;28;20951;-72
2023/01/01 02:00:34;;;;;;;18.53;6.50;;;13.30;98.00;;;;;;5013407;28;20460;-72
2023/01/01 02:03:06;;;;;;;13.80;6.40;;;13.40;98.00;;;;;;5013388;28;20466;-72
2023/01/01 02:05:34;;;;;;;22.97;6.47;;;13.60;98.00;;;;;;5013434;28;20536;-72
2023/01/01 02:08:04;;;;;;;20.93;6.00;;;13.70;98.00;;;;;;5013285;28;21022;-73
2023/01/01 02:10:32;;;;;;;13.07;5.83;;;13.90;98.00;;;;;;5013235;28;20488;-72
2023/01/01 02:12:59;;;;;;;12.60;5.33;;;14.00;98.00;;;;;;5011785;28;20866;-72
2023/01/01 02:15:31;;;;;;;13.20;5.40;;;14.10;98.00;;;;;;5013195;28;21015;-72
2023/01/01 02:18:03;;;;;;;12.87;5.87;;;14.20;98.00;;;;;;5013380;28;20458;-72
2023/01/01 02:20:40;;;;;;;15.93;7.20;;;14.30;98.00;;;;;;5013157;28;20463;-72
2023/01/01 02:23:41;;;;;;;9.73;4.60;;;14.20;98.00;;;;;;5013212;28;20464;-72
2023/01/01 02:26:39;;;;;;;10.80;5.70;;;14.10;98.00;;;;;;5013008;28;20474;-72
2023/01/01 02:29:17;;;;;;;13.10;5.40;;;14.10;98.00;;;;;;5004124;28;20457;-72
2023/01/01 02:31:49;;;;;;;10.70;5.03;;;14.10;98.00;;;;;;5013292;28;20458;-73
2023/01/01 02:34:20;;;;;;;9.43;4.30;;;14.10;98.00;;;;;;5012885;28;20842;-73
2023/01/01 02:36:53;;;;;;;7.70;4.23;;;14.30;98.00;;;;;;5013095;28;20511;-72
2023/01/01 02:39:25;;;;;;;10.57;5.07;;;14.30;98.00;;;;;;5012905;28;20466;-72
2023/01/01 02:41:56;;;;;;;10.47;4.50;;;14.30;98.00;;;;;;5011817;28;20452;-72
2023/01/01 02:44:28;;;;;;;8.70;4.73;;;14.40;98.00;;;;;;5012515;28;20457;-73
2023/01/01 02:46:57;;;;;;;8.23;4.70;;;14.40;98.00;;;;;;5011573;28;20458;-73
2023/01/01 02:49:26;;;;;;;12.13;4.93;;;14.40;98.00;;;;;;5012407;28;20461;-72
2023/01/01 02:52:02;;;;;;;11.87;5.30;;;14.60;98.00;;;;;;5012577;28;20464;-72
2023/01/01 02:54:37;;;;;;;8.90;4.40;;;14.70;98.00;;;;;;5012346;28;20475;-73
2023/01/01 02:57:10;;;;;;;7.87;3.83;;;14.60;98.00;;;;;;5012402;28;20920;-73
2023/01/01 03:02:45;;;;;;;10.00;3.80;;;14.70;98.00;;;;;;5012546;28;20446;-72
2023/01/01 03:05:19;;;;;;;6.17;3.20;;;14.80;98.00;;;;;;5012302;28;20813;-73
2023/01/01 03:08:00;;;;;;;10.00;3.80;;;14.90;98.00;;;;;;5012548;28;20455;-73
2023/01/01 03:10:37;;;;;;;8.43;3.70;;;14.90;98.00;;;;;;5011178;28;20516;-72
2023/01/01 03:13:19;;;;;;;13.90;4.63;;;14.80;98.00;;;;;;5012575;28;20809;-72
2023/01/01 03:15:58;;;;;;;12.37;4.37;;;14.80;98.00;;;;;;5012261;28;20490;-72
2023/01/01 03:18:32;;;;;;;11.27;5.40;;;14.60;98.00;;;;;;5012517;28;20509;-72
2023/01/01 03:21:03;;;;;;;10.07;4.80;;;14.40;98.00;;;;;;5012329;28;20451;-73
2023/01/01 03:23:36;;;;;;;7.07;3.87;;;14.30;98.00;;;;;;5012327;28;20474;-72
2023/01/01 03:26:08;;;;;;;8.00;4.17;;;14.40;98.00;;;;;;5011533;28;20561;-72
2023/01/01 03:28:39;;;;;;;9.33;3.90;;;14.30;98.00;;;;;;5012165;28;20466;-73
2023/01/01 03:31:09;;;;;;;9.40;3.40;;;14.30;98.00;;;;;;5012332;28;20949;-72
2023/01/01 03:33:41;;;;;;;8.67;4.07;;;14.20;98.00;;;;;;5012625;28;20516;-73
2023/01/01 03:36:12;;;;;;;6.00;3.43;;;14.20;98.00;;;;;;5012278;28;20494;-73
2023/01/01 03:38:43;;;;;;;8.13;3.00;;;14.30;98.00;;;;;;5012030;28;20524;-73
2023/01/01 03:41:20;;;;;;;5.10;3.00;;;14.30;98.00;;;;;;5012082;28;21070;-73
2023/01/01 03:43:51;;;;;;;7.77;3.50;;;14.40;98.00;;;;;;5012111;28;20480;-72
2023/01/01 03:46:24;;;;;;;7.30;3.70;;;14.40;98.00;;;;;;5011953;28;20470;-72
2023/01/01 03:48:59;;;;;;;7.20;3.57;;;14.40;98.00;;;;;;5011802;28;20953;-72
2023/01/01 03:51:32;;;;;;;9.33;3.90;;;14.20;98.00;;;;;;5010683;28;20459;-72
2023/01/01 03:54:06;;;;;;;6.93;3.50;;;14.20;98.00;;;;;;5011985;28;20984;-72
2023/01/01 03:56:39;;;;;;;8.70;4.20;;;14.10;98.00;;;;;;5011643;28;20486;-73
2023/01/01 03:59:12;;;;;;;7.00;3.90;;;14.00;98.00;;;;;;5011958;28;20909;-72
2023/01/01 04:01:45;;;;;;;10.43;4.80;;;13.90;98.00;;;;;;5011871;28;20797;-73
2023/01/01 04:04:17;;;;;;;8.33;4.17;;;13.80;98.00;;;;;;5011666;28;20462;-72
2023/01/01 04:06:45;;;;;;;5.90;3.00;;;13.70;98.00;;;;;;5012025;28;20476;-72
2023/01/01 04:09:17;;;;;;;5.10;2.57;;;13.70;98.00;;;;;;5011838;28;20453;-72
2023/01/01 04:12:03;;;;;;;4.07;2.80;;;13.90;98.00;;;;;;5012029;28;20458;-72
2023/01/01 04:14:33;;;;;;;6.20;2.60;;;13.90;98.00;;;;;;5011725;28;20494;-72
2023/01/01 04:17:03;;;;;;;4.13;2.20;;;14.10;98.00;;;;;;5011951;28;20494;-72
2023/01/01 04:19:31;;;;;;;4.40;2.60;;;14.20;98.00;;;;;;5011742;28;20483;-72
2023/01/01 04:21:58;;;;;;;4.43;2.17;;;14.30;98.00;;;;;;5010613;28;20454;-72
2023/01/01 04:24:25;;;;;;;5.20;2.90;;;14.30;98.00;;;;;;5011576;28;20482;-72
2023/01/01 04:26:53;;;;;;;3.80;2.70;;;14.50;98.00;;;;;;5011928;28;20463;-72
2023/01/01 04:29:21;;;;;;;3.80;2.43;;;14.60;98.00;;;;;;5011871;28;20465;-72
2023/01/01 04:31:49;;;;;;;4.37;2.40;;;14.70;98.00;;;;;;5010764;28;20485;-72
2023/01/01 04:34:17;;;;;;;4.70;2.17;;;14.80;98.00;;;;;;5011838;28;20485;-73
2023/01/01 04:36:44;;;;;;;3.70;2.10;;;14.80;98.00;;;;;;5013814;28;21024;-72
2023/01/01 04:39:12;;;;;;;6.80;2.40;;;14.80;98.00;;;;;;5015266;28;20501;-72
2023/01/01 04:41:39;;;;;;;4.83;2.43;;;15.10;98.00;;;;;;5013686;28;20466;-72
2023/01/01 04:44:06;;;;;;;3.07;2.03;;;15.10;98.00;;;;;;5015104;28;20460;-72
2023/01/01 04:46:33;;;;;;;3.47;2.03;;;15.10;98.00;;;;;;5014859;28;20463;-72
2023/01/01 04:49:03;;;;;;;2.23;1.70;;;15.10;98.00;;;;;;5013516;28;20462;-72
2023/01/01 04:51:33;;;;;;;2.90;2.10;;;15.20;98.00;;;;;;5014626;28;20461;-72
2023/01/01 04:54:01;;;;;;;5.17;2.20;;;15.20;98.00;;;;;;5014590;28;20968;-72
2023/01/01 04:56:28;;;;;;;2.77;1.93;;;15.10;98.00;;;;;;5014638;28;20850;-73
2023/01/01 04:58:56;;;;;;;4.87;2.30;;;15.10;98.00;;;;;;5013427;28;20466;-72
2023/01/01 05:01:25;;;;;;;2.50;1.80;;;15.10;98.00;;;;;;5014487;28;20461;-72
2023/01/01 05:03:53;;;;;;;3.03;2.07;;;15.20;98.00;;;;;;5014653;28;20462;-72
2023/01/01 05:06:20;;;;;;;9.03;2.50;;;15.20;98.00;;;;;;5012903;28;20463;-72
2023/01/01 05:08:50;;;;;;;3.17;2.00;;;15.40;98.00;;;;;;5014651;28;20482;-72
2023/01/01 05:11:19;;;;;;;3.67;2.00;;;15.40;98.00;;;;;;5014481;28;20474;-72
2023/01/01 05:13:48;;;;;;;2.87;2.00;;;15.50;98.00;;;;;;5014597;28;20862;-72
2023/01/01 05:16:17;;;;;;;8.23;2.50;;;15.50;98.00;;;;;;5013097;28;20471;-72
2023/01/01 05:18:45;;;;;;;3.77;2.27;;;15.50;98.00;;;;;;5014382;28;20462;-72
2023/01/01 05:21:14;;;;;;;2.50;1.93;;;15.50;98.00;;;;;;5014330;28;20459;-73
2023/01/01 05:23:42;;;;;;;2.80;2.00;;;15.40;98.00;;;;;;5014501;28;20455;-72
2023/01/01 05:26:18;;;;;;;9.10;2.03;;;15.50;98.00;;;;;;5014204;28;20494;-72
2023/01/01 05:28:45;;;;;;;5.30;2.23;;;15.50;98.00;;;;;;5014350;28;20464;-73
2023/01/01 05:31:14;;;;;;;4.73;2.20;;;15.50;98.00;;;;;;5014176;28;20466;-72
2023/01/01 05:33:42;;;;;;;2.93;1.90;;;15.40;98.00;;;;;;5013159;28;20458;-73
2023/01/01 05:36:15;;;;;;;3.10;1.80;;;15.40;98.00;;;;;;5014103;28;21095;-73
2023/01/01 05:38:42;;;;;;;1.77;1.57;;;15.50;98.00;;;;;;5014223;28;20467;-72
2023/01/01 05:41:13;;;;;;;1.60;1.47;;;15.50;98.00;;;;;;5013835;28;20462;-72
2023/01/01 05:43:40;;;;;;;2.20;1.77;;;15.50;98.00;;;;;;5013888;28;20463;-72
2023/01/01 05:46:10;;;;;;;5.73;2.50;;;15.60;98.00;;;;;;5013620;28;20462;-72
2023/01/01 05:48:37;;;;;;;1.97;1.70;;;15.60;98.00;;;;;;5013123;28;20463;-72
2023/01/01 05:51:05;;;;;;;2.37;1.90;;;15.60;98.00;;;;;;5013654;28;20832;-72
2023/01/01 05:53:33;;;;;;;2.40;1.80;;;15.50;98.00;;;;;;5013525;28;20459;-72
2023/01/01 05:56:00;;;;;;;5.33;2.13;;;15.50;98.00;;;;;;5013467;28;20470;-72
2023/01/01 05:58:30;;;;;;;3.40;2.13;;;15.50;98.00;;;;;;5013455;28;20456;-73
2023/01/01 06:00:57;;;;;;;3.37;2.03;;;15.60;98.00;;;;;;5013540;28;20871;-72
2023/01/01 06:03:26;;;;;;;3.50;2.13;;;15.60;98.00;;;;;;5013400;28;20466;-73
2023/01/01 06:05:53;;;;;;;4.20;2.53;;;15.60;98.00;;;;;;5013368;28;20462;-72
2023/01/01 06:08:20;;;;;;;3.83;1.90;;;15.60;98.00;;;;;;5013411;28;20516;-72
2023/01/01 06:10:47;;;;;;;2.70;2.30;;;15.60;98.00;;;;;;5013196;28;20494;-72
2023/01/01 06:13:14;;;;;;;5.17;2.20;;;15.60;98.00;;;;;;5013318;28;20455;-72
2023/01/01 06:15:43;;;;;;;3.73;2.10;;;15.60;98.00;;;;;;5013174;28;20456;-72
2023/01/01 06:18:10;;;;;;;4.13;2.00;;;15.50;98.00;;;;;;5012000;28;20889;-72
2023/01/01 06:20:37;;;;;;;3.13;1.77;;;15.40;98.00;;;;;;5013187;28;20467;-72
2023/01/01 06:23:04;;;;;;;4.40;2.17;;;15.40;98.00;;;;;;5013276;28;20820;-72
2023/01/01 06:25:31;;;;;;;4.37;2.30;;;15.40;98.00;;;;;;5012943;28;20480;-72
2023/01/01 06:27:59;;;;;;;7.17;2.37;;;15.40;98.00;;;;;;5013165;28;20524;-72
2023/01/01 06:30:26;;;;;;;2.60;1.87;;;15.40;98.00;;;;;;5011933;28;20463;-72
2023/01/01 06:32:57;;;;;;;3.40;2.30;;;15.40;98.00;;;;;;5012926;28;20945;-72
2023/01/01 06:35:24;;;;;;;4.70;1.83;;;15.40;98.00;;;;;;5013081;28;20986;-72
2023/01/01 06:37:54;;;;;;;4.87;2.13;;;15.30;98.00;;;;;;5012822;28;20490;-72
2023/01/01 06:40:21;;;;;;;4.87;2.40;;;15.30;98.00;;;;;;5012680;28;20885;-72
2023/01/01 06:42:48;;;;;;;3.73;2.17;;;15.20;98.00;;;;;;5011875;28;20455;-72
2023/01/01 06:45:15;;;;;;;6.07;2.30;;;15.20;98.00;;;;;;5012536;28;20498;-72
2023/01/01 06:47:42;;;;;;;3.30;2.03;;;15.20;98.00;;;;;;5012654;28;20463;-73
2023/01/01 06:50:11;;;;;;;10.17;2.20;;;15.10;98.00;;;;;;5011449;28;20470;-72
2023/01/01 06:52:38;;;;;;;5.20;2.23;;;15.10;98.00;;;;;;5012464;28;20474;-73
2023/01/01 06:55:06;;;;;;;2.83;1.83;;;15.00;98.00;;;;;;5012593;28;20457;-73
2023/01/01 06:57:33;;;;;;;7.43;2.13;;;15.00;98.00;;;;;;5012413;28;20493;-72
2023/01/01 07:00:01;;;;;;;4.60;2.40;;;15.00;98.00;;;;;;5011188;28;20498;-74
2023/01/01 07:02:28;;;;;;;5.53;2.50;;;15.00;98.00;;;;;;5012485;28;20465;-72
2023/01/01 07:04:56;;;;;;;5.00;2.23;;;15.00;98.00;;;;;;5011092;28;20461;-71
2023/01/01 07:07:24;;;;;;;4.70;2.20;;;14.90;98.00;;;;;;5012476;28;20462;-72
2023/01/01 07:09:51;;;;;;;4.97;2.50;;;14.80;98.00;;;;;;5012348;28;20463;-72
2023/01/01 07:12:18;;;;;;;2.83;2.10;;;14.80;98.00;;;;;;5012439;28;20458;-73
2023/01/01 07:14:45;;;;;;;2.57;2.00;;;14.80;98.00;;;;;;5012362;28;20471;-72
2023/01/01 07:17:12;;;;;;;3.57;2.00;;;14.70;98.00;;;;;;5012397;28;20483;-71
2023/01/01 07:19:39;;;;;;;3.60;2.27;;;14.70;98.00;;;;;;4995025;28;20986;-72
2023/01/01 07:22:10;;;;;;;4.40;1.97;;;14.70;98.00;;;;;;5012406;28;20933;-72
2023/01/01 07:24:39;;;;;;;7.70;3.20;;;14.70;98.00;;;;;;5012386;28;21097;-73
2023/01/01 07:27:06;;;;;;;3.33;2.13;;;14.70;98.00;;;;;;5012444;28;20467;-73
2023/01/01 07:29:34;;;;;;;2.57;1.90;;;14.70;98.00;;;;;;5012465;28;20471;-73
2023/01/01 07:32:02;;;;;;;4.50;2.60;;;14.70;98.00;;;;;;5011812;28;20985;-74
2023/01/01 07:34:30;;;;;;;4.37;2.60;;;14.70;98.00;;;;;;5011763;28;20459;-72
2023/01/01 07:36:57;;;;;;;5.07;2.43;;;14.60;98.00;;;;;;5011528;28;20494;-74
2023/01/01 07:39:25;;;;;;;6.77;2.93;;;14.60;98.00;;;;;;5011749;28;20467;-73
2023/01/01 07:41:54;;;;;;;7.13;3.00;;;14.50;98.00;;;;;;5012159;28;20473;-73
2023/01/01 07:44:21;;;;;;;6.13;2.37;;;14.50;98.00;;;;;;5011612;28;20459;-72
2023/01/01 07:46:48;;;;;;;3.77;2.30;;;14.50;98.00;;;;;;5012013;28;20461;-74
2023/01/01 07:49:15;;;;;;;2.50;2.07;;;14.50;98.00;;;;;;5011807;28;20505;-74
2023/01/01 07:51:42;;;;;;;2.53;2.00;;;14.50;98.00;;;;;;5010722;28;20553;-73
2023/01/01 07:54:09;;;;;;;3.40;2.40;;;14.50;98.00;;;;;;5011928;28;20470;-74
2023/01/01 07:56:36;;;;;;;3.23;2.40;;;14.40;98.00;;;;;;5011804;28;20458;-72
2023/01/01 07:59:05;;;;;;;3.23;2.33;;;14.40;98.00;;;;;;5011833;28;20521;-72
2023/01/01 08:01:34;;;;;;;6.50;2.90;;;14.40;98.00;;;;;;5011755;28;20510;-76
2023/01/01 08:04:03;;;;;;;9.73;2.80;;;14.40;98.00;;;;;;5011831;28;20458;-65
2023/01/01 08:06:30;;;;;;;6.20;2.70;;;14.40;98.00;;;;;;5011780;28;20459;-73
2023/01/01 08:09:00;;;;;;;4.50;2.50;;;14.40;98.00;;;;;;5011845;28;20470;-74
2023/01/01 08:11:28;;;;;;;5.60;2.57;;;14.40;98.00;;;;;;5013476;28;20551;-74
2023/01/01 08:13:55;;;;;;;4.87;2.70;;;14.40;98.00;;;;;;5015684;28;20505;-73
2023/01/01 08:16:23;;;;;;;8.70;2.50;;;14.40;98.00;;;;;;5015496;28;20450;-72
2023/01/01 08:18:50;;;;;;;5.10;2.90;;;14.40;98.00;;;;;;5015451;28;20479;-73
2023/01/01 08:21:17;;;;;;;5.43;2.90;;;14.40;98.00;;;;;;5015326;28;20463;-74
2023/01/01 08:23:44;;;;;;;3.73;2.30;;;14.40;98.00;;;;;;5015268;28;20458;-72
2023/01/01 08:26:15;;;;;;;5.97;2.83;;;14.30;98.00;;;;;;5015306;28;20517;-74
2023/01/01 08:28:42;;;;;;;6.00;2.80;;;14.30;98.00;;;;;;5015604;28;20501;-74
2023/01/01 08:31:10;;;;;;;3.30;2.13;;;14.30;98.00;;;;;;5015548;28;20457;-73
2023/01/01 08:33:38;;;;;;;5.70;3.10;;;14.20;98.00;;;;;;5022696;28;20458;-73
2023/01/01 08:36:06;;;;;;;6.37;2.40;;;14.10;98.00;;;;;;5034961;28;20963;-73
2023/01/01 08:38:33;;;;;;;4.27;2.23;;;14.20;98.00;;;;;;5034567;28;20563;-75
2023/01/01 08:41:00;;;;;;;4.80;2.40;;;14.20;98.00;;;;;;5034905;28;20466;-74
2023/01/01 08:43:28;;;;;;;4.03;2.53;;;14.20;98.00;;;;;;5034399;28;20465;-73
2023/01/01 08:45:55;;;;;;;7.20;2.97;;;14.20;98.00;;;;;;5034796;28;20845;-73
2023/01/01 08:48:22;;;;;;;5.47;2.50;;;14.20;98.00;;;;;;5033427;28;20459;-76
2023/01/01 08:50:54;;;;;;;5.90;2.70;;;14.20;98.00;;;;;;5034266;28;20466;-75
2023/01/01 08:53:21;;;;;;;9.10;2.10;;;14.30;98.00;;;;;;5034626;28;20470;-74
2023/01/01 08:55:56;;;;;;;4.63;2.80;;;14.30;98.00;;;;;;5033238;28;20453;-73
2023/01/01 08:58:23;;;;;;;5.00;2.17;;;14.30;98.00;;;;;;5034372;28;20517;-73
2023/01/01 09:00:51;;;;;;;5.00;2.80;;;14.30;98.00;;;;;;5034308;28;20940;-73
2023/01/01 09:03:18;;;;;;;3.40;2.17;;;14.40;98.00;;;;;;5034154;28;21015;-74
2023/01/01 09:05:45;;;;;;;3.40;2.10;;;14.30;98.00;;;;;;5034326;28;20469;-74
2023/01/01 09:08:14;;;;;;;2.83;2.03;;;14.30;98.00;;;;;;5034280;28;20450;-73
2023/01/01 09:10:45;;;;;;;4.20;2.23;;;14.30;98.00;;;;;;5034242;28;20460;-73
2023/01/01 09:13:14;;;;;;;3.97;2.20;;;14.30;98.00;;;;;;5034230;28;20946;-75
2023/01/01 09:15:42;;;;;;;4.27;2.30;;;14.10;98.00;;;;;;5034174;28;20476;-75
2023/01/01 09:18:09;;;;;;;4.80;2.50;;;14.00;98.00;;;;;;5034018;28;20517;-73
2023/01/01 09:20:36;;;;;;;4.77;2.23;;;13.90;98.00;;;;;;5034143;28;20786;-73
2023/01/01 09:23:07;;;;;;;6.30;3.17;;;13.90;98.00;;;;;;5012815;28;20495;-73
2023/01/01 09:25:36;;;;;;;4.83;2.40;;;13.90;98.00;;;;;;5015889;28;20477;-73
2023/01/01 09:28:05;;;;;;;12.57;2.23;;;13.90;98.00;;;;;;5031847;28;20461;-73
2023/01/01 09:30:32;;;;;;;4.00;2.20;;;13.80;98.00;;;;;;5029577;28;20471;-72
2023/01/01 09:32:59;;;;;;;4.40;2.37;;;13.70;98.00;;;;;;5021872;28;21080;-72
2023/01/01 09:35:27;;;;;;;10.70;3.80;;;13.70;98.00;;;;;;5014044;28;20466;-71
2023/01/01 09:37:54;;;;;;;3.93;2.33;;;13.90;98.00;;;;;;5013874;28;21178;-74
2023/01/01 09:40:30;;;;;;;4.37;2.30;;;14.00;98.00;;;;;;5013814;28;20463;-72
2023/01/01 09:43:10;;;;;;;4.60;2.30;;;14.00;98.00;;;;;;5013747;28;20458;-72
2023/01/01 09:45:50;;;;;;;8.50;3.37;;;13.90;98.00;;;;;;5013899;28;20471;-72
2023/01/01 09:48:18;;;;;;;5.67;2.40;;;13.90;98.00;;;;;;5013653;28;20455;-68
2023/01/01 09:50:46;;;;;;;6.63;2.90;;;13.90;98.00;;;;;;5013866;28;20459;-73
2023/01/01 09:53:17;;;;;;;5.07;2.43;;;13.90;98.00;;;;;;5013868;28;20961;-74
2023/01/01 09:55:48;;;;;;;4.17;2.33;;;13.90;98.00;;;;;;5013559;28;20932;-73
2023/01/01 09:58:24;;;;;;;3.30;2.20;;;13.80;98.00;;;;;;5013665;28;20868;-74
2023/01/01 10:00:54;;;;;;;5.00;2.43;;;13.80;98.00;;;;;;5013752;28;20553;-73
2023/01/01 10:03:31;;;;;;;7.80;2.53;;;13.90;98.00;;;;;;5013578;28;20482;-73
2023/01/01 10:06:08;;;;;;;6.63;2.20;;;13.90;98.00;;;;;;5013475;28;20459;-74
2023/01/01 10:08:46;;;;;;;3.43;2.20;;;13.90;98.00;;;;;;5013486;28;20513;-67
2023/01/01 10:11:25;;;;;;;2.23;1.70;;;13.90;98.00;;;;;;5013283;28;20458;-73
2023/01/01 10:13:57;;;;;;;5.97;3.07;;;13.90;98.00;;;;;;5012432;28;20514;-61
2023/01/01 10:16:31;;;;;;;5.23;2.90;;;14.00;98.00;;;;;;5013319;28;20466;-70
2023/01/01 10:19:20;;;;;;;3.70;2.13;;;14.00;98.00;;;;;;5013370;28;20494;-72
2023/01/01 10:21:50;;;;;;;4.50;2.50;;;14.00;98.00;;;;;;5013406;28;20539;-70
2023/01/01 10:24:35;;;;;;;5.30;2.77;;;14.10;98.00;;;;;;5015612;28;20474;-73
2023/01/01 10:27:05;;;;;;;7.73;3.10;;;14.30;98.00;;;;;;5020642;28;20451;-70
2023/01/01 10:29:45;;;;;;;4.47;2.60;;;14.40;98.00;;;;;;5022069;28;20473;-70
2023/01/01 10:32:20;;;;;;;5.60;3.00;;;14.40;98.00;;;;;;5021684;28;20451;-70
2023/01/01 10:34:49;;;;;;;4.60;2.73;;;14.40;98.00;;;;;;5022715;28;20953;-69
2023/01/01 10:37:16;;;;;;;3.63;2.50;;;14.50;98.00;;;;;;5026994;28;20968;-72
2023/01/01 10:39:44;;;;;;;4.70;2.17;;;14.50;98.00;;;;;;5022265;28;20545;-73
2023/01/01 10:42:13;;;;;;;4.33;2.87;;;14.50;98.00;;;;;;5030377;28;20864;-71
2023/01/01 10:44:45;;;;;;;4.67;2.20;;;14.50;98.00;;;;;;5024564;28;20451;-75
2023/01/01 10:47:34;;;;;;;3.67;2.13;;;14.40;98.00;;;;;;5046679;28;20462;-71
2023/01/01 10:50:06;;;;;;;3.60;2.87;;;14.50;98.00;;;;;;5033884;28;20465;-74
2023/01/01 10:52:36;;;;;;;5.33;2.70;;;14.70;98.00;;;;;;5045995;28;20464;-74
2023/01/01 10:55:05;;;;;;;7.83;2.97;;;14.80;98.00;;;;;;5033398;28;20465;-73
2023/01/01 10:57:36;;;;;;;3.80;2.23;;;14.80;98.00;;;;;;5048394;28;20453;-72
2023/01/01 11:00:21;;;;;;;4.00;2.40;;;14.80;98.00;;;;;;5033859;28;20466;-74
2023/01/01 11:03:05;;;;;;;5.10;2.53;;;14.90;98.00;;;;;;5012756;28;20942;-73
2023/01/01 11:05:32;;;;;;;5.00;2.60;;;14.90;98.00;;;;;;5011457;28;20462;-72
2023/01/01 11:08:00;;;;;;;4.80;2.37;;;14.90;98.00;;;;;;5012646;28;20974;-63
2023/01/01 11:10:28;;;;;;;10.17;4.50;;;15.00;98.00;;;;;;5012327;28;20950;-64
2023/01/01 11:12:55;;;;;;;8.27;2.53;;;15.20;98.00;;;;;;5012463;28;20455;-64
2023/01/01 11:15:34;;;;;;;2.33;1.80;;;15.60;98.00;;;;;;5012370;28;20460;-63
2023/01/01 11:18:04;;;;;;;6.20;2.17;;;15.90;98.00;;;;;;5012261;28;20483;-63
2023/01/01 11:20:33;;;;;;;7.20;2.53;;;16.20;98.00;;;;;;5012237;28;20463;-63
2023/01/01 11:23:16;;;;;;;3.30;1.80;;;16.40;98.00;;;;;;5012456;28;20514;-67
2023/01/01 11:26:01;;;;;;;2.37;1.90;;;16.60;98.00;;;;;;5012165;28;20466;-68
2023/01/01 11:28:33;;;;;;;2.63;1.90;;;16.80;98.00;;;;;;5013856;28;20495;-69
2023/01/01 11:31:15;;;;;;;3.60;2.20;;;17.00;98.00;;;;;;5028660;28;20460;-71
2023/01/01 11:33:48;;;;;;;4.60;2.00;;;17.20;98.00;;;;;;5021176;28;20949;-70
2023/01/01 11:36:29;;;;;;;4.27;1.90;;;17.40;98.00;;;;;;5020381;28;20859;-70
2023/01/01 11:39:19;;;;;;;3.93;2.07;;;17.50;98.00;;;;;;5020161;28;20494;-71
2023/01/01 11:41:49;;;;;;;3.73;2.03;;;17.60;98.00;;;;;;5019642;28;20938;-68
2023/01/01 11:44:30;;;;;;;3.50;2.00;;;17.80;98.00;;;;;;5011844;28;20463;-68
2023/01/01 11:46:58;;;;;;;4.63;1.77;;;17.80;98.00;;;;;;5013636;28;20470;-70
2023/01/01 11:49:30;;;;;;;1.77;1.50;;;17.80;98.00;;;;;;5015786;28;20950;-69
2023/01/01 11:54:31;;;;;;;2.93;1.73;;;17.90;98.00;;;;;;5004286;28;20465;-67
2023/01/01 11:57:04;;;;;;;4.23;2.00;;;18.00;98.00;;;;;;5005141;28;20824;-66
2023/01/01 11:59:40;;;;;;;2.90;1.60;;;18.10;98.00;;;;;;5000411;28;20492;-71
2023/01/01 12:02:15;;;;;;;2.30;1.77;;;18.20;98.00;;;;;;4995304;28;20463;-72
2023/01/01 12:04:48;;;;;;;18.70;2.00;;;18.30;97.50;;;;;;4995372;28;20455;-72
2023/01/01 12:07:20;;;;;;;3.50;1.93;;;18.20;97.80;;;;;;4994249;28;20545;-71
2023/01/01 12:09:53;;;;;;;2.50;2.00;;;18.20;98.00;;;;;;4994151;28;20463;-67
2023/01/01 12:12:27;;;;;;;2.43;1.70;;;18.10;97.30;;;;;;5001440;28;20471;-71
2023/01/01 12:15:02;;;;;;;4.63;1.97;;;18.20;97.40;;;;;;5014885;28;20964;-71
2023/01/01 12:17:37;;;;;;;4.53;2.97;;;18.20;96.80;;;;;;5014694;28;20465;-71
2023/01/01 12:20:11;;;;;;;3.90;2.33;;;18.20;97.70;;;;;;5014682;28;20491;-71
2023/01/01 12:22:39;;;;;;;3.07;1.80;;;18.40;97.00;;;;;;5014580;28;20463;-71
2023/01/01 12:25:10;;;;;;;2.87;1.60;;;18.60;97.10;;;;;;5014648;28;20533;-72
2023/01/01 12:27:59;;;;;;;3.80;1.80;;;18.70;96.10;;;;;;4997912;28;20468;-71
2023/01/01 12:30:39;;;;;;;4.87;2.00;;;18.90;95.10;;;;;;5013514;28;20517;-72
2023/01/01 12:33:26;;;;;;;6.13;1.73;;;19.10;96.00;;;;;;5014535;28;20462;-71
2023/01/01 12:36:07;;;;;;;2.10;1.80;;;19.40;93.60;;;;;;5014527;28;20502;-70
2023/01/01 12:39:02;;;;;;;6.80;2.30;;;19.60;94.70;;;;;;5000933;28;20480;-71
2023/01/01 12:41:36;;;;;;;4.80;2.30;;;19.80;93.50;;;;;;4993607;28;20452;-72
2023/01/01 12:44:12;;;;;;;6.97;2.40;;;20.00;92.80;;;;;;4994795;28;20468;-72
2023/01/01 12:46:49;;;;;;;6.27;3.33;;;20.30;92.80;;;;;;4994298;28;20826;-68
2023/01/01 12:49:53;;;;;;;6.10;2.60;;;20.40;92.30;;;;;;4994548;28;20483;-73
2023/01/01 12:52:31;;;;;;;3.90;2.23;;;20.70;92.10;;;;;;4994144;28;20516;-71
2023/01/01 12:55:34;;;;;;;2.80;2.03;;;20.90;91.80;;;;;;4994484;28;20478;-71
2023/01/01 12:58:08;;;;;;;3.33;2.23;;;20.80;91.40;;;;;;4994253;28;20456;-72
2023/01/01 13:00:39;;;;;;;6.83;2.50;;;20.90;90.50;;;;;;4994154;28;20530;-72
2023/01/01 13:03:15;;;;;;;3.47;2.17;;;21.00;90.80;;;;;;4994405;28;20464;-72
2023/01/01 13:05:48;;;;;;;5.70;2.20;;;21.10;90.60;;;;;;4994370;28;20450;-73
2023/01/01 13:08:15;;;;;;;7.00;2.83;;;21.00;90.60;;;;;;4994270;28;20460;-71
2023/01/01 13:10:44;;;;;;;3.73;2.40;;;20.80;89.70;;;;;;4994358;28;20460;-74